Orbital elements of AYAME-2 DEB
| Launched | 21 February 1980 |
| Flight ended | – |
| Launch site | Tanegashima Space Center, Japan |
| Owner | Japan |
| NORAD ID | 38684 |
| Date fetched |
Epoch osculation |
Inc. [°] |
Ecc. | RA asc node [hr] |
Arg Peri. [°] |
Mean anom [°] |
Mean motion [rev/day] |
Abs. mag |
| Date fetched |
Epoch osculation |
Inc. [°] |
Ecc. | RA asc node [hr] |
Arg Peri. [°] |
Mean anom [°] |
Mean motion [rev/day] |
Abs. mag |
| 2026 May 04 17:57 | 2026 Apr 30 06:45:16 | 10.0427 | 0.45195 | 23.2398 | 38.8248 | 346.3311 | 1.77346 | – |
| 2026 May 03 17:57 | 2026 Apr 30 06:45:16 | 10.0427 | 0.45195 | 23.2398 | 38.8248 | 346.3311 | 1.77346 | – |
| 2026 May 02 17:57 | 2026 Apr 30 06:45:16 | 10.0427 | 0.45195 | 23.2398 | 38.8248 | 346.3311 | 1.77346 | – |
| 2026 May 01 17:56 | 2026 Apr 30 06:45:16 | 10.0427 | 0.45195 | 23.2398 | 38.8248 | 346.3311 | 1.77346 | – |
| 2026 Apr 30 17:56 | 2026 Apr 30 06:45:16 | 10.0427 | 0.45195 | 23.2398 | 38.8248 | 346.3311 | 1.77346 | – |
| 2026 Apr 29 17:57 | 2026 Apr 24 01:54:15 | 10.0411 | 0.45192 | 23.2696 | 37.8555 | 346.3311 | 1.77346 | – |
| 2026 Apr 28 17:56 | 2026 Apr 24 01:54:15 | 10.0411 | 0.45192 | 23.2696 | 37.8555 | 346.3311 | 1.77346 | – |
| 2026 Apr 27 17:58 | 2026 Apr 24 01:54:15 | 10.0411 | 0.45192 | 23.2696 | 37.8555 | 346.3311 | 1.77346 | – |
| 2026 Apr 26 17:58 | 2026 Apr 24 01:54:15 | 10.0411 | 0.45192 | 23.2696 | 37.8555 | 346.3311 | 1.77346 | – |
| 2026 Apr 25 17:58 | 2026 Apr 24 01:54:15 | 10.0411 | 0.45192 | 23.2696 | 37.8555 | 346.3311 | 1.77346 | – |
| 2026 Apr 24 17:59 | 2026 Apr 24 01:54:15 | 10.0411 | 0.45192 | 23.2696 | 37.8555 | 346.3311 | 1.77346 | – |
| 2026 Apr 23 17:57 | 2026 Apr 19 00:07:10 | 10.0400 | 0.45194 | 23.2938 | 37.0597 | 346.3311 | 1.77346 | – |
| 2026 Apr 22 17:57 | 2026 Apr 19 00:07:10 | 10.0400 | 0.45194 | 23.2938 | 37.0597 | 346.3311 | 1.77346 | – |
| 2026 Apr 21 17:57 | 2026 Apr 19 00:07:10 | 10.0400 | 0.45194 | 23.2938 | 37.0597 | 346.3311 | 1.77346 | – |
| 2026 Apr 20 17:57 | 2026 Apr 19 00:07:10 | 10.0400 | 0.45194 | 23.2938 | 37.0597 | 346.3311 | 1.77346 | – |
| 2026 Apr 19 17:58 | 2026 Apr 19 00:07:10 | 10.0400 | 0.45194 | 23.2938 | 37.0597 | 346.3311 | 1.77346 | – |
| 2026 Apr 18 17:56 | 2026 Apr 12 05:44:11 | 10.0393 | 0.45185 | 23.3265 | 35.9801 | 346.3311 | 1.77346 | – |
| 2026 Apr 16 17:57 | 2026 Apr 12 05:44:11 | 10.0393 | 0.45185 | 23.3265 | 35.9801 | 346.3311 | 1.77346 | – |
| 2026 Apr 14 17:57 | 2026 Apr 12 05:44:11 | 10.0393 | 0.45185 | 23.3265 | 35.9801 | 346.3311 | 1.77346 | – |
| 2026 Apr 13 17:57 | 2026 Apr 12 05:44:11 | 10.0393 | 0.45185 | 23.3265 | 35.9801 | 346.3311 | 1.77346 | – |
| 2026 Apr 12 17:57 | 2026 Apr 08 07:00:57 | 10.0382 | 0.45184 | 23.3456 | 35.3662 | 346.3311 | 1.77346 | – |
| 2026 Apr 11 17:57 | 2026 Apr 08 07:00:57 | 10.0382 | 0.45184 | 23.3456 | 35.3662 | 346.3311 | 1.77346 | – |
| 2026 Apr 10 17:58 | 2026 Apr 08 07:00:57 | 10.0382 | 0.45184 | 23.3456 | 35.3662 | 346.3311 | 1.77346 | – |
| 2026 Apr 09 18:01 | 2026 Apr 08 07:00:57 | 10.0382 | 0.45184 | 23.3456 | 35.3662 | 346.3311 | 1.77346 | – |
| 2026 Apr 08 17:57 | 2026 Apr 08 07:00:57 | 10.0382 | 0.45184 | 23.3456 | 35.3662 | 346.3311 | 1.77346 | – |
| 2026 Apr 07 17:57 | 2026 Mar 30 20:02:13 | 10.0352 | 0.45171 | 23.3864 | 34.0203 | 346.3311 | 1.77346 | – |